Big Bear Station Historical Data
Daily Summary for February 7, 2019 Units:  English    Metric   Both
Next Day »
Daily Weekly Monthly Yearly Custom
  High: Low: Average:
Temperature: 36.1 °F 5.2 °F 18 °F
Dew Point: 27.9 °F 3.9 °F 15.3 °F
Humidity: 96% 71% 90%
Wind Speed: 3.7mph 0.0mph 0.4mph
Wind Gust: -999.0mph - -
Wind- - West
Pressure: 23.53 in 23.46 in -
Precipitation: 0.00 in    
Historical Graphs
 
 
Tabular Data for February 7, 2019
Time Temperature Dew Point Pressure Wind Wind Speed Wind Gust Humidity Rainfall Rate (Hourly)
00:14 9.7 °F 8.6 °F 23.46 in Calm   -999.0 mph 95% 0.00 in
00:29 9.3 °F 8.2 °F 23.47 in Calm   -999.0 mph 95% 0.00 in
00:44 9.0 °F 7.9 °F 23.47 in Calm   -999.0 mph 95% 0.00 in
01:00 8.8 °F 7.7 °F 23.47 in Calm   -999.0 mph 95% 0.00 in
01:15 8.6 °F 7.5 °F 23.48 in Calm   -999.0 mph 95% 0.00 in
01:30 8.4 °F 7.0 °F 23.48 in Calm   -999.0 mph 94% 0.00 in
01:45 7.9 °F 6.5 °F 23.48 in Calm   -999.0 mph 94% 0.00 in
02:01 7.9 °F 6.5 °F 23.47 in Calm   -999.0 mph 94% 0.00 in
02:16 7.7 °F 6.3 °F 23.47 in Calm   -999.0 mph 94% 0.00 in
02:31 7.5 °F 6.1 °F 23.47 in Calm   -999.0 mph 94% 0.00 in
02:46 7.7 °F 6.6 °F 23.47 in Calm   -999.0 mph 95% 0.00 in
03:01 7.2 °F 5.8 °F 23.46 in Calm   -999.0 mph 94% 0.00 in
03:17 7.0 °F 5.6 °F 23.46 in Calm   -999.0 mph 94% 0.00 in
03:32 7.0 °F 5.6 °F 23.47 in Calm   -999.0 mph 94% 0.00 in
03:47 6.6 °F 5.2 °F 23.47 in Calm   -999.0 mph 94% 0.00 in
04:02 7.0 °F 5.6 °F 23.47 in Calm   -999.0 mph 94% 0.00 in
04:17 6.6 °F 5.2 °F 23.47 in Calm   -999.0 mph 94% 0.00 in
04:33 6.4 °F 5.0 °F 23.47 in Calm   -999.0 mph 94% 0.00 in
04:48 6.3 °F 4.9 °F 23.47 in Calm   -999.0 mph 94% 0.00 in
05:03 6.1 °F 4.7 °F 23.47 in Calm   -999.0 mph 94% 0.00 in
05:18 5.9 °F 4.5 °F 23.48 in Calm   -999.0 mph 94% 0.00 in
05:33 5.7 °F 4.3 °F 23.48 in Calm   -999.0 mph 94% 0.00 in
05:49 5.7 °F 4.3 °F 23.48 in Calm   -999.0 mph 94% 0.00 in
06:04 5.5 °F 4.1 °F 23.48 in Calm   -999.0 mph 94% 0.00 in
06:19 5.5 °F 4.1 °F 23.48 in Calm   -999.0 mph 94% 0.00 in
06:34 5.5 °F 4.1 °F 23.49 in Calm   -999.0 mph 94% 0.00 in
06:49 5.2 °F 3.9 °F 23.49 in Calm   -999.0 mph 94% 0.00 in
07:05 5.4 °F 4.0 °F 23.50 in Calm   -999.0 mph 94% 0.00 in
07:20 5.9 °F 4.5 °F 23.50 in Calm   -999.0 mph 94% 0.00 in
07:35 6.1 °F 4.7 °F 23.50 in Calm   -999.0 mph 94% 0.00 in
07:50 6.8 °F 5.4 °F 23.51 in Calm   -999.0 mph 94% 0.00 in
08:06 7.5 °F 6.1 °F 23.51 in Calm   -999.0 mph 94% 0.00 in
08:21 7.9 °F 6.3 °F 23.51 in Calm   -999.0 mph 93% 0.00 in
08:36 9.1 °F 7.5 °F 23.51 in Calm   -999.0 mph 93% 0.00 in
08:51 10.9 °F 9.3 °F 23.52 in Calm   -999.0 mph 93% 0.00 in
09:06 12.7 °F 11.3 °F 23.52 in Calm   -999.0 mph 94% 0.00 in
09:22 14.2 °F 12.5 °F 23.52 in Calm   -999.0 mph 93% 0.00 in
09:37 15.8 °F 14.4 °F 23.52 in Calm   -999.0 mph 94% 0.00 in
09:52 17.4 °F 16.0 °F 23.52 in Calm   -999.0 mph 94% 0.00 in
10:07 19.9 °F 18.5 °F 23.52 in Calm   -999.0 mph 94% 0.00 in
10:22 22.6 °F 21.4 °F 23.53 in Calm   -999.0 mph 95% 0.00 in
10:38 25.2 °F 22.9 °F 23.52 in Calm   -999.0 mph 91% 0.00 in
10:53 27.3 °F 23.7 °F 23.52 in Calm   -999.0 mph 86% 0.00 in
11:08 30.0 °F 23.4 °F 23.52 in West 2.2 mph -999.0 mph 76% 0.00 in
11:23 31.5 °F 24.5 °F 23.52 in NNW 3.2 mph -999.0 mph 75% 0.00 in
11:38 31.8 °F 25.4 °F 23.52 in Calm   -999.0 mph 77% 0.00 in
11:54 32.2 °F 26.1 °F 23.51 in NW 2.2 mph -999.0 mph 78% 0.00 in
12:09 33.6 °F 26.5 °F 23.51 in NW 2.7 mph -999.0 mph 75% 0.00 in
12:25 35.2 °F 27.4 °F 23.51 in Calm   -999.0 mph 73% 0.00 in
12:40 36.1 °F 27.9 °F 23.50 in Calm   -999.0 mph 72% 0.00 in
12:55 36.0 °F 27.5 °F 23.50 in WNW 2.2 mph -999.0 mph 71% 0.00 in
13:11 34.3 °F 26.2 °F 23.50 in Calm   -999.0 mph 72% 0.00 in
13:26 33.6 °F 26.5 °F 23.49 in NNE 1.7 mph -999.0 mph 75% 0.00 in
13:41 32.5 °F 25.8 °F 23.49 in WNW 2.7 mph -999.0 mph 76% 0.00 in
13:56 32.0 °F 26.2 °F 23.49 in NW 2.7 mph -999.0 mph 79% 0.00 in
14:11 32.7 °F 26.6 °F 23.49 in Calm   -999.0 mph 78% 0.00 in
14:27 32.5 °F 26.4 °F 23.49 in NNW 2.7 mph -999.0 mph 78% 0.00 in
14:42 31.3 °F 26.1 °F 23.48 in WNW 2.7 mph -999.0 mph 81% 0.00 in
14:57 31.1 °F 26.0 °F 23.48 in NNE 3.7 mph -999.0 mph 81% 0.00 in
15:12 30.7 °F 25.6 °F 23.48 in NW 1.7 mph -999.0 mph 81% 0.00 in
15:28 30.6 °F 25.2 °F 23.48 in NW 2.7 mph -999.0 mph 80% 0.00 in
15:43 30.4 °F 24.7 °F 23.48 in NW 3.2 mph -999.0 mph 79% 0.00 in
15:58 30.0 °F 24.9 °F 23.48 in WNW 1.1 mph -999.0 mph 81% 0.00 in
16:13 29.3 °F 24.8 °F 23.48 in Calm   -999.0 mph 83% 0.00 in
16:28 28.9 °F 25.0 °F 23.48 in Calm   -999.0 mph 85% 0.00 in
16:44 28.2 °F 24.6 °F 23.48 in Calm   -999.0 mph 86% 0.00 in
16:59 27.3 °F 23.9 °F 23.48 in Calm   -999.0 mph 87% 0.00 in
17:14 26.6 °F 23.5 °F 23.48 in Calm   -999.0 mph 88% 0.00 in
17:29 25.5 °F 22.7 °F 23.48 in Calm   -999.0 mph 89% 0.00 in
17:44 24.4 °F 21.9 °F 23.48 in Calm   -999.0 mph 90% 0.00 in
18:00 24.1 °F 21.9 °F 23.48 in Calm   -999.0 mph 91% 0.00 in
18:15 23.4 °F 21.2 °F 23.48 in Calm   -999.0 mph 91% 0.00 in
18:30 22.6 °F 20.6 °F 23.48 in Calm   -999.0 mph 92% 0.00 in
18:45 22.1 °F 20.1 °F 23.49 in Calm   -999.0 mph 92% 0.00 in
19:00 21.6 °F 19.9 °F 23.49 in Calm   -999.0 mph 93% 0.00 in
19:16 21.0 °F 19.3 °F 23.49 in Calm   -999.0 mph 93% 0.00 in
19:31 20.8 °F 19.6 °F 23.50 in Calm   -999.0 mph 95% 0.00 in
19:46 20.5 °F 19.3 °F 23.50 in Calm   -999.0 mph 95% 0.00 in
20:01 20.1 °F 18.7 °F 23.50 in Calm   -999.0 mph 94% 0.00 in
20:17 19.4 °F 18.0 °F 23.51 in Calm   -999.0 mph 94% 0.00 in
20:32 18.9 °F 17.5 °F 23.51 in Calm   -999.0 mph 94% 0.00 in
20:47 18.1 °F 16.7 °F 23.51 in Calm   -999.0 mph 94% 0.00 in
21:02 18.0 °F 16.6 °F 23.51 in Calm   -999.0 mph 94% 0.00 in
21:17 17.6 °F 16.2 °F 23.51 in Calm   -999.0 mph 94% 0.00 in
21:33 17.1 °F 15.9 °F 23.51 in Calm   -999.0 mph 95% 0.00 in
21:48 16.3 °F 15.1 °F 23.51 in Calm   -999.0 mph 95% 0.00 in
22:03 16.3 °F 15.1 °F 23.51 in Calm   -999.0 mph 95% 0.00 in
22:18 16.0 °F 14.8 °F 23.50 in Calm   -999.0 mph 95% 0.00 in
22:33 15.4 °F 14.2 °F 23.49 in Calm   -999.0 mph 95% 0.00 in
22:49 15.6 °F 14.4 °F 23.49 in Calm   -999.0 mph 95% 0.00 in
23:04 15.1 °F 13.9 °F 23.49 in Calm   -999.0 mph 95% 0.00 in
23:19 14.9 °F 14.0 °F 23.49 in Calm   -999.0 mph 96% 0.00 in
23:34 14.4 °F 13.2 °F 23.49 in Calm   -999.0 mph 95% 0.00 in
23:49 14.0 °F 12.8 °F 23.48 in Calm   -999.0 mph 95% 0.00 in
Big Bear CA Weather